sensor_id;sensor_type;location;lat;lon;timestamp;temperature;humidity
3312;DHT22;1668;49.648;8.570;2022-12-29T00:00:20;9.50;1.00
3312;DHT22;1668;49.648;8.570;2022-12-29T00:02:48;9.50;99.90
3312;DHT22;1668;49.648;8.570;2022-12-29T00:05:15;9.50;99.90
3312;DHT22;1668;49.648;8.570;2022-12-29T00:07:42;9.50;1.00
3312;DHT22;1668;49.648;8.570;2022-12-29T00:10:09;9.50;1.00
3312;DHT22;1668;49.648;8.570;2022-12-29T00:12:36;9.50;1.00
3312;DHT22;1668;49.648;8.570;2022-12-29T00:15:20;9.40;1.00
3312;DHT22;1668;49.648;8.570;2022-12-29T00:18:07;9.50;1.00
3312;DHT22;1668;49.648;8.570;2022-12-29T00:20:35;9.50;1.00
3312;DHT22;1668;49.648;8.570;2022-12-29T00:23:20;9.50;62.30
3312;DHT22;1668;49.648;8.570;2022-12-29T00:26:12;9.60;1.00
3312;DHT22;1668;49.648;8.570;2022-12-29T00:28:57;9.60;1.00
3312;DHT22;1668;49.648;8.570;2022-12-29T00:31:41;9.60;99.90
3312;DHT22;1668;49.648;8.570;2022-12-29T00:34:27;9.60;1.00
3312;DHT22;1668;49.648;8.570;2022-12-29T00:37:11;9.60;94.40
3312;DHT22;1668;49.648;8.570;2022-12-29T00:39:38;9.60;99.90
3312;DHT22;1668;49.648;8.570;2022-12-29T00:42:23;9.60;99.90
3312;DHT22;1668;49.648;8.570;2022-12-29T00:45:07;9.60;99.90
3312;DHT22;1668;49.648;8.570;2022-12-29T00:47:34;9.80;1.00
3312;DHT22;1668;49.648;8.570;2022-12-29T00:50:03;9.90;1.00
3312;DHT22;1668;49.648;8.570;2022-12-29T00:52:29;9.90;1.00
3312;DHT22;1668;49.648;8.570;2022-12-29T00:54:56;10.00;1.00
3312;DHT22;1668;49.648;8.570;2022-12-29T00:57:23;10.10;34.90
3312;DHT22;1668;49.648;8.570;2022-12-29T00:59:50;10.20;18.00
3312;DHT22;1668;49.648;8.570;2022-12-29T01:02:17;10.30;32.80
3312;DHT22;1668;49.648;8.570;2022-12-29T01:04:44;10.40;1.00
3312;DHT22;1668;49.648;8.570;2022-12-29T01:07:12;10.50;1.00
3312;DHT22;1668;49.648;8.570;2022-12-29T01:09:39;10.50;1.00
3312;DHT22;1668;49.648;8.570;2022-12-29T01:12:23;10.50;1.00
3312;DHT22;1668;49.648;8.570;2022-12-29T01:15:05;10.60;1.00
3312;DHT22;1668;49.648;8.570;2022-12-29T01:17:32;10.50;1.00
3312;DHT22;1668;49.648;8.570;2022-12-29T01:19:59;10.60;1.00
3312;DHT22;1668;49.648;8.570;2022-12-29T01:22:28;10.60;1.00
3312;DHT22;1668;49.648;8.570;2022-12-29T01:24:55;10.70;1.00
3312;DHT22;1668;49.648;8.570;2022-12-29T01:27:21;10.70;99.90
3312;DHT22;1668;49.648;8.570;2022-12-29T01:29:48;10.70;99.90
3312;DHT22;1668;49.648;8.570;2022-12-29T01:32:15;10.70;99.90
3312;DHT22;1668;49.648;8.570;2022-12-29T01:34:42;10.80;1.00
3312;DHT22;1668;49.648;8.570;2022-12-29T01:37:09;10.80;1.00
3312;DHT22;1668;49.648;8.570;2022-12-29T01:39:37;10.80;99.90
3312;DHT22;1668;49.648;8.570;2022-12-29T01:42:04;10.90;99.90
3312;DHT22;1668;49.648;8.570;2022-12-29T01:44:52;10.90;99.90
3312;DHT22;1668;49.648;8.570;2022-12-29T01:47:26;10.90;1.00
3312;DHT22;1668;49.648;8.570;2022-12-29T01:49:57;10.90;1.00
3312;DHT22;1668;49.648;8.570;2022-12-29T01:52:27;10.90;1.00
3312;DHT22;1668;49.648;8.570;2022-12-29T01:54:58;10.90;1.00
3312;DHT22;1668;49.648;8.570;2022-12-29T01:57:29;10.90;99.90
3312;DHT22;1668;49.648;8.570;2022-12-29T01:59:59;11.00;99.90
3312;DHT22;1668;49.648;8.570;2022-12-29T02:02:27;11.00;99.90
3312;DHT22;1668;49.648;8.570;2022-12-29T02:04:55;11.00;1.00
3312;DHT22;1668;49.648;8.570;2022-12-29T02:07:25;11.00;1.00
3312;DHT22;1668;49.648;8.570;2022-12-29T02:09:54;11.00;1.00
3312;DHT22;1668;49.648;8.570;2022-12-29T02:12:24;11.00;1.00
3312;DHT22;1668;49.648;8.570;2022-12-29T02:14:54;11.00;1.00
3312;DHT22;1668;49.648;8.570;2022-12-29T02:17:31;11.00;18.50
3312;DHT22;1668;49.648;8.570;2022-12-29T02:23:46;11.00;99.90
3312;DHT22;1668;49.648;8.570;2022-12-29T02:26:46;11.00;99.90
3312;DHT22;1668;49.648;8.570;2022-12-29T02:29:39;11.00;99.90
3312;DHT22;1668;49.648;8.570;2022-12-29T02:32:15;11.10;99.90
3312;DHT22;1668;49.648;8.570;2022-12-29T02:34:52;11.00;99.90
3312;DHT22;1668;49.648;8.570;2022-12-29T02:37:24;11.00;99.90
3312;DHT22;1668;49.648;8.570;2022-12-29T02:39:59;11.10;99.90
3312;DHT22;1668;49.648;8.570;2022-12-29T02:42:33;11.10;99.90
3312;DHT22;1668;49.648;8.570;2022-12-29T02:45:05;11.10;99.90
3312;DHT22;1668;49.648;8.570;2022-12-29T02:47:41;11.10;99.90
3312;DHT22;1668;49.648;8.570;2022-12-29T02:50:15;11.10;60.60
3312;DHT22;1668;49.648;8.570;2022-12-29T02:52:47;11.10;99.90
3312;DHT22;1668;49.648;8.570;2022-12-29T02:55:15;11.10;66.00
3312;DHT22;1668;49.648;8.570;2022-12-29T02:57:41;11.10;93.20
3312;DHT22;1668;49.648;8.570;2022-12-29T03:00:11;11.10;99.90
3312;DHT22;1668;49.648;8.570;2022-12-29T03:02:59;11.10;75.90
3312;DHT22;1668;49.648;8.570;2022-12-29T03:05:46;11.10;75.70
3312;DHT22;1668;49.648;8.570;2022-12-29T03:08:26;11.10;99.90
3312;DHT22;1668;49.648;8.570;2022-12-29T03:10:59;11.10;27.10
3312;DHT22;1668;49.648;8.570;2022-12-29T03:13:32;11.20;1.00
3312;DHT22;1668;49.648;8.570;2022-12-29T03:16:21;11.20;1.00
3312;DHT22;1668;49.648;8.570;2022-12-29T03:18:57;11.20;1.00
3312;DHT22;1668;49.648;8.570;2022-12-29T03:21:32;11.30;99.90
3312;DHT22;1668;49.648;8.570;2022-12-29T03:24:25;11.30;99.90
3312;DHT22;1668;49.648;8.570;2022-12-29T03:26:56;11.30;99.90
3312;DHT22;1668;49.648;8.570;2022-12-29T03:29:24;11.30;99.90
3312;DHT22;1668;49.648;8.570;2022-12-29T03:31:53;11.30;16.90
3312;DHT22;1668;49.648;8.570;2022-12-29T03:34:24;11.30;99.90
3312;DHT22;1668;49.648;8.570;2022-12-29T03:36:54;11.20;99.90
3312;DHT22;1668;49.648;8.570;2022-12-29T03:39:24;11.30;37.10
3312;DHT22;1668;49.648;8.570;2022-12-29T03:42:01;11.30;1.00
3312;DHT22;1668;49.648;8.570;2022-12-29T03:44:34;11.30;99.90
3312;DHT22;1668;49.648;8.570;2022-12-29T03:47:02;11.30;99.90
3312;DHT22;1668;49.648;8.570;2022-12-29T03:49:30;11.30;1.00
3312;DHT22;1668;49.648;8.570;2022-12-29T03:51:57;11.40;1.00
3312;DHT22;1668;49.648;8.570;2022-12-29T03:54:24;11.30;35.50
3312;DHT22;1668;49.648;8.570;2022-12-29T03:56:51;11.30;99.90
3312;DHT22;1668;49.648;8.570;2022-12-29T03:59:18;11.30;1.00
3312;DHT22;1668;49.648;8.570;2022-12-29T04:01:45;11.30;1.00
3312;DHT22;1668;49.648;8.570;2022-12-29T04:04:12;11.30;97.30
3312;DHT22;1668;49.648;8.570;2022-12-29T04:06:40;11.30;1.00
3312;DHT22;1668;49.648;8.570;2022-12-29T04:09:09;11.40;99.90
3312;DHT22;1668;49.648;8.570;2022-12-29T04:11:36;11.40;1.00
3312;DHT22;1668;49.648;8.570;2022-12-29T04:14:03;11.50;99.90
3312;DHT22;1668;49.648;8.570;2022-12-29T04:16:29;11.50;1.00
3312;DHT22;1668;49.648;8.570;2022-12-29T04:18:56;11.50;1.00
3312;DHT22;1668;49.648;8.570;2022-12-29T04:21:23;11.50;99.90
3312;DHT22;1668;49.648;8.570;2022-12-29T04:23:52;11.50;1.00
3312;DHT22;1668;49.648;8.570;2022-12-29T04:26:19;11.50;1.00
3312;DHT22;1668;49.648;8.570;2022-12-29T04:28:45;11.50;1.00
3312;DHT22;1668;49.648;8.570;2022-12-29T04:31:12;11.50;1.00
3312;DHT22;1668;49.648;8.570;2022-12-29T04:33:39;11.40;99.90
3312;DHT22;1668;49.648;8.570;2022-12-29T04:36:06;11.40;1.00
3312;DHT22;1668;49.648;8.570;2022-12-29T04:38:33;11.30;1.00
3312;DHT22;1668;49.648;8.570;2022-12-29T04:41:02;11.30;8.50
3312;DHT22;1668;49.648;8.570;2022-12-29T04:43:29;11.30;1.00
3312;DHT22;1668;49.648;8.570;2022-12-29T04:45:56;11.30;99.90
3312;DHT22;1668;49.648;8.570;2022-12-29T04:48:23;11.30;1.00
3312;DHT22;1668;49.648;8.570;2022-12-29T04:50:50;11.30;1.00
3312;DHT22;1668;49.648;8.570;2022-12-29T04:53:17;11.30;99.90
3312;DHT22;1668;49.648;8.570;2022-12-29T04:55:48;11.30;99.90
3312;DHT22;1668;49.648;8.570;2022-12-29T04:58:17;11.20;1.00
3312;DHT22;1668;49.648;8.570;2022-12-29T05:00:44;11.20;99.90
3312;DHT22;1668;49.648;8.570;2022-12-29T05:03:11;11.30;1.00
3312;DHT22;1668;49.648;8.570;2022-12-29T05:05:38;11.30;99.90
3312;DHT22;1668;49.648;8.570;2022-12-29T05:08:05;11.20;99.90
3312;DHT22;1668;49.648;8.570;2022-12-29T05:10:32;11.20;99.90
3312;DHT22;1668;49.648;8.570;2022-12-29T05:12:59;11.30;1.00
3312;DHT22;1668;49.648;8.570;2022-12-29T05:15:27;11.30;1.00
3312;DHT22;1668;49.648;8.570;2022-12-29T05:17:54;11.30;99.90
3312;DHT22;1668;49.648;8.570;2022-12-29T05:20:22;11.30;29.10
3312;DHT22;1668;49.648;8.570;2022-12-29T05:22:48;11.20;1.00
3312;DHT22;1668;49.648;8.570;2022-12-29T05:25:15;11.20;95.10
3312;DHT22;1668;49.648;8.570;2022-12-29T05:27:42;11.20;99.90
3312;DHT22;1668;49.648;8.570;2022-12-29T05:30:10;11.20;99.90
3312;DHT22;1668;49.648;8.570;2022-12-29T05:32:39;11.20;99.90
3312;DHT22;1668;49.648;8.570;2022-12-29T05:35:06;11.20;1.00
3312;DHT22;1668;49.648;8.570;2022-12-29T05:37:34;11.20;1.00
3312;DHT22;1668;49.648;8.570;2022-12-29T05:40:00;11.20;1.00
3312;DHT22;1668;49.648;8.570;2022-12-29T05:42:28;11.20;1.00
3312;DHT22;1668;49.648;8.570;2022-12-29T05:44:55;11.20;1.00
3312;DHT22;1668;49.648;8.570;2022-12-29T05:47:21;11.20;99.90
3312;DHT22;1668;49.648;8.570;2022-12-29T05:49:50;11.30;1.00
3312;DHT22;1668;49.648;8.570;2022-12-29T05:52:17;11.20;99.90
3312;DHT22;1668;49.648;8.570;2022-12-29T05:54:44;11.20;1.00
3312;DHT22;1668;49.648;8.570;2022-12-29T05:57:10;11.20;1.00
3312;DHT22;1668;49.648;8.570;2022-12-29T05:59:37;11.20;99.90
3312;DHT22;1668;49.648;8.570;2022-12-29T06:02:04;11.20;99.90
3312;DHT22;1668;49.648;8.570;2022-12-29T06:04:31;11.30;99.90
3312;DHT22;1668;49.648;8.570;2022-12-29T06:06:59;11.30;1.00
3312;DHT22;1668;49.648;8.570;2022-12-29T06:09:26;11.30;90.70
3312;DHT22;1668;49.648;8.570;2022-12-29T06:11:53;11.30;99.90
3312;DHT22;1668;49.648;8.570;2022-12-29T06:14:20;11.20;1.00
3312;DHT22;1668;49.648;8.570;2022-12-29T06:16:47;11.20;99.90
3312;DHT22;1668;49.648;8.570;2022-12-29T06:19:14;11.20;99.90
3312;DHT22;1668;49.648;8.570;2022-12-29T06:21:41;11.30;1.00
3312;DHT22;1668;49.648;8.570;2022-12-29T06:24:09;11.20;1.00
3312;DHT22;1668;49.648;8.570;2022-12-29T06:26:36;11.20;1.00
3312;DHT22;1668;49.648;8.570;2022-12-29T06:29:04;11.20;1.00
3312;DHT22;1668;49.648;8.570;2022-12-29T06:31:30;11.20;1.00
3312;DHT22;1668;49.648;8.570;2022-12-29T06:33:57;11.20;1.00
3312;DHT22;1668;49.648;8.570;2022-12-29T06:36:24;11.20;99.90
3312;DHT22;1668;49.648;8.570;2022-12-29T06:38:51;11.10;99.90
3312;DHT22;1668;49.648;8.570;2022-12-29T06:41:20;11.20;99.90
3312;DHT22;1668;49.648;8.570;2022-12-29T06:43:47;11.20;99.90
3312;DHT22;1668;49.648;8.570;2022-12-29T06:46:14;11.20;99.90
3312;DHT22;1668;49.648;8.570;2022-12-29T06:48:41;11.10;99.90
3312;DHT22;1668;49.648;8.570;2022-12-29T06:51:08;11.20;99.90
3312;DHT22;1668;49.648;8.570;2022-12-29T06:53:35;11.20;99.90
3312;DHT22;1668;49.648;8.570;2022-12-29T06:56:03;11.20;1.00
3312;DHT22;1668;49.648;8.570;2022-12-29T06:58:31;11.20;1.00
3312;DHT22;1668;49.648;8.570;2022-12-29T07:00:58;11.20;1.00
3312;DHT22;1668;49.648;8.570;2022-12-29T07:03:25;11.20;99.90
3312;DHT22;1668;49.648;8.570;2022-12-29T07:05:52;11.20;1.00
3312;DHT22;1668;49.648;8.570;2022-12-29T07:08:19;11.20;1.00
3312;DHT22;1668;49.648;8.570;2022-12-29T07:10:46;11.20;1.00
3312;DHT22;1668;49.648;8.570;2022-12-29T07:13:13;11.20;99.90
3312;DHT22;1668;49.648;8.570;2022-12-29T07:15:41;11.20;1.00
3312;DHT22;1668;49.648;8.570;2022-12-29T07:18:08;11.20;1.00
3312;DHT22;1668;49.648;8.570;2022-12-29T07:20:35;11.20;1.00
3312;DHT22;1668;49.648;8.570;2022-12-29T07:23:02;11.20;99.90
3312;DHT22;1668;49.648;8.570;2022-12-29T07:25:30;11.20;1.00
3312;DHT22;1668;49.648;8.570;2022-12-29T07:27:59;11.10;1.00
3312;DHT22;1668;49.648;8.570;2022-12-29T07:30:25;11.10;1.00
3312;DHT22;1668;49.648;8.570;2022-12-29T07:32:54;11.10;1.00
3312;DHT22;1668;49.648;8.570;2022-12-29T07:35:21;11.10;1.00
3312;DHT22;1668;49.648;8.570;2022-12-29T07:37:48;11.10;99.90
3312;DHT22;1668;49.648;8.570;2022-12-29T07:40:15;11.10;19.40
3312;DHT22;1668;49.648;8.570;2022-12-29T07:42:42;11.10;1.00
3312;DHT22;1668;49.648;8.570;2022-12-29T07:45:09;11.20;1.00
3312;DHT22;1668;49.648;8.570;2022-12-29T07:47:36;11.10;1.00
3312;DHT22;1668;49.648;8.570;2022-12-29T07:50:06;11.10;1.00
3312;DHT22;1668;49.648;8.570;2022-12-29T07:52:33;11.10;53.30
3312;DHT22;1668;49.648;8.570;2022-12-29T07:55:00;11.10;1.00
3312;DHT22;1668;49.648;8.570;2022-12-29T07:57:26;11.10;99.90
3312;DHT22;1668;49.648;8.570;2022-12-29T07:59:53;11.10;99.90
3312;DHT22;1668;49.648;8.570;2022-12-29T08:02:20;11.10;1.00
3312;DHT22;1668;49.648;8.570;2022-12-29T08:04:47;11.10;1.00
3312;DHT22;1668;49.648;8.570;2022-12-29T08:07:15;11.10;30.90
3312;DHT22;1668;49.648;8.570;2022-12-29T08:09:44;11.10;99.90
3312;DHT22;1668;49.648;8.570;2022-12-29T08:12:11;11.10;1.00
3312;DHT22;1668;49.648;8.570;2022-12-29T08:14:38;11.10;38.00
3312;DHT22;1668;49.648;8.570;2022-12-29T08:17:05;11.10;1.00
3312;DHT22;1668;49.648;8.570;2022-12-29T08:19:32;11.20;99.90
3312;DHT22;1668;49.648;8.570;2022-12-29T08:21:58;11.20;1.00
3312;DHT22;1668;49.648;8.570;2022-12-29T08:24:27;11.20;99.90
3312;DHT22;1668;49.648;8.570;2022-12-29T08:26:55;11.20;1.00
3312;DHT22;1668;49.648;8.570;2022-12-29T08:29:22;11.20;1.00
3312;DHT22;1668;49.648;8.570;2022-12-29T08:31:48;11.20;99.90
3312;DHT22;1668;49.648;8.570;2022-12-29T08:34:16;11.20;99.90
3312;DHT22;1668;49.648;8.570;2022-12-29T08:36:43;11.30;99.90
3312;DHT22;1668;49.648;8.570;2022-12-29T08:39:10;11.30;99.90
3312;DHT22;1668;49.648;8.570;2022-12-29T08:41:38;11.30;94.40
3312;DHT22;1668;49.648;8.570;2022-12-29T08:44:05;11.30;99.90
3312;DHT22;1668;49.648;8.570;2022-12-29T08:46:32;11.30;1.00
3312;DHT22;1668;49.648;8.570;2022-12-29T08:48:59;11.30;1.00
3312;DHT22;1668;49.648;8.570;2022-12-29T08:51:26;11.30;1.00
3312;DHT22;1668;49.648;8.570;2022-12-29T08:53:53;11.40;99.90
3312;DHT22;1668;49.648;8.570;2022-12-29T08:56:20;11.40;99.90
3312;DHT22;1668;49.648;8.570;2022-12-29T08:58:48;11.40;13.20
3312;DHT22;1668;49.648;8.570;2022-12-29T09:01:15;11.40;99.90
3312;DHT22;1668;49.648;8.570;2022-12-29T09:03:41;11.50;54.50
3312;DHT22;1668;49.648;8.570;2022-12-29T09:06:08;11.50;1.00
3312;DHT22;1668;49.648;8.570;2022-12-29T09:08:36;11.50;1.00
3312;DHT22;1668;49.648;8.570;2022-12-29T09:11:07;11.50;1.00
3312;DHT22;1668;49.648;8.570;2022-12-29T09:13:34;11.50;99.90
3312;DHT22;1668;49.648;8.570;2022-12-29T09:16:03;11.50;99.90
3312;DHT22;1668;49.648;8.570;2022-12-29T09:18:30;11.50;99.90
3312;DHT22;1668;49.648;8.570;2022-12-29T09:20:57;11.50;1.00
3312;DHT22;1668;49.648;8.570;2022-12-29T09:23:25;11.50;1.00
3312;DHT22;1668;49.648;8.570;2022-12-29T09:25:52;11.50;1.00
3312;DHT22;1668;49.648;8.570;2022-12-29T09:28:19;11.50;1.00
3312;DHT22;1668;49.648;8.570;2022-12-29T09:30:47;11.50;99.90
3312;DHT22;1668;49.648;8.570;2022-12-29T09:33:16;11.50;99.90
3312;DHT22;1668;49.648;8.570;2022-12-29T09:35:43;11.50;99.90
3312;DHT22;1668;49.648;8.570;2022-12-29T09:38:11;11.50;99.90
3312;DHT22;1668;49.648;8.570;2022-12-29T09:40:38;11.60;99.90
3312;DHT22;1668;49.648;8.570;2022-12-29T09:46:10;11.60;99.90
3312;DHT22;1668;49.648;8.570;2022-12-29T09:48:43;11.70;1.00
3312;DHT22;1668;49.648;8.570;2022-12-29T09:51:13;11.80;1.00
3312;DHT22;1668;49.648;8.570;2022-12-29T09:53:44;11.80;1.00
3312;DHT22;1668;49.648;8.570;2022-12-29T09:56:15;11.90;1.00
3312;DHT22;1668;49.648;8.570;2022-12-29T09:58:45;12.10;1.00
3312;DHT22;1668;49.648;8.570;2022-12-29T10:01:23;12.10;1.00
3312;DHT22;1668;49.648;8.570;2022-12-29T10:03:57;12.20;99.90
3312;DHT22;1668;49.648;8.570;2022-12-29T10:06:28;12.30;99.90
3312;DHT22;1668;49.648;8.570;2022-12-29T10:09:02;12.30;99.90
3312;DHT22;1668;49.648;8.570;2022-12-29T10:11:49;12.20;99.90
3312;DHT22;1668;49.648;8.570;2022-12-29T10:14:32;12.20;1.00
3312;DHT22;1668;49.648;8.570;2022-12-29T10:17:04;12.40;99.90
3312;DHT22;1668;49.648;8.570;2022-12-29T10:19:48;12.40;99.90
3312;DHT22;1668;49.648;8.570;2022-12-29T10:22:32;12.40;99.90
3312;DHT22;1668;49.648;8.570;2022-12-29T10:25:12;12.40;99.90
3312;DHT22;1668;49.648;8.570;2022-12-29T10:27:41;12.40;99.90
3312;DHT22;1668;49.648;8.570;2022-12-29T10:30:12;12.40;99.90
3312;DHT22;1668;49.648;8.570;2022-12-29T10:32:41;12.40;1.00
3312;DHT22;1668;49.648;8.570;2022-12-29T10:35:16;12.40;1.00
3312;DHT22;1668;49.648;8.570;2022-12-29T10:37:49;12.40;1.00
3312;DHT22;1668;49.648;8.570;2022-12-29T10:40:24;12.30;1.00
3312;DHT22;1668;49.648;8.570;2022-12-29T10:42:53;12.30;1.00
3312;DHT22;1668;49.648;8.570;2022-12-29T10:45:22;12.30;1.00
3312;DHT22;1668;49.648;8.570;2022-12-29T10:47:55;12.30;1.00
3312;DHT22;1668;49.648;8.570;2022-12-29T10:50:25;12.30;1.00
3312;DHT22;1668;49.648;8.570;2022-12-29T10:52:52;12.20;1.00
3312;DHT22;1668;49.648;8.570;2022-12-29T10:55:24;12.20;90.70
3312;DHT22;1668;49.648;8.570;2022-12-29T10:57:55;12.20;99.90
3312;DHT22;1668;49.648;8.570;2022-12-29T11:00:23;12.20;99.90
3312;DHT22;1668;49.648;8.570;2022-12-29T11:03:06;12.20;1.00
3312;DHT22;1668;49.648;8.570;2022-12-29T11:05:40;12.20;1.00
3312;DHT22;1668;49.648;8.570;2022-12-29T11:08:11;12.10;99.90
3312;DHT22;1668;49.648;8.570;2022-12-29T11:10:40;12.20;99.90
3312;DHT22;1668;49.648;8.570;2022-12-29T11:13:14;12.20;99.90
3312;DHT22;1668;49.648;8.570;2022-12-29T11:15:43;12.10;99.90
3312;DHT22;1668;49.648;8.570;2022-12-29T11:18:22;12.20;1.00
3312;DHT22;1668;49.648;8.570;2022-12-29T11:20:51;12.20;1.00
3312;DHT22;1668;49.648;8.570;2022-12-29T11:23:25;12.20;1.00
3312;DHT22;1668;49.648;8.570;2022-12-29T11:26:07;12.10;1.00
3312;DHT22;1668;49.648;8.570;2022-12-29T11:28:35;11.90;99.90
3312;DHT22;1668;49.648;8.570;2022-12-29T11:31:04;11.80;1.00
3312;DHT22;1668;49.648;8.570;2022-12-29T11:33:33;11.80;25.70
3312;DHT22;1668;49.648;8.570;2022-12-29T11:36:05;11.70;1.00
3312;DHT22;1668;49.648;8.570;2022-12-29T11:38:35;11.70;1.00
3312;DHT22;1668;49.648;8.570;2022-12-29T11:41:04;11.70;1.00
3312;DHT22;1668;49.648;8.570;2022-12-29T11:43:34;11.70;1.00
3312;DHT22;1668;49.648;8.570;2022-12-29T11:46:04;11.70;1.00
3312;DHT22;1668;49.648;8.570;2022-12-29T11:48:33;11.70;1.00
3312;DHT22;1668;49.648;8.570;2022-12-29T11:51:06;11.70;1.00
3312;DHT22;1668;49.648;8.570;2022-12-29T11:53:39;11.70;99.90
3312;DHT22;1668;49.648;8.570;2022-12-29T11:56:12;11.70;1.00
3312;DHT22;1668;49.648;8.570;2022-12-29T11:58:41;11.70;99.90
3312;DHT22;1668;49.648;8.570;2022-12-29T12:01:15;11.70;1.00
3312;DHT22;1668;49.648;8.570;2022-12-29T12:03:47;11.70;99.90
3312;DHT22;1668;49.648;8.570;2022-12-29T12:06:19;11.60;1.00
3312;DHT22;1668;49.648;8.570;2022-12-29T12:08:54;11.60;99.90
3312;DHT22;1668;49.648;8.570;2022-12-29T12:11:26;11.60;1.00
3312;DHT22;1668;49.648;8.570;2022-12-29T12:14:00;11.50;99.90
3312;DHT22;1668;49.648;8.570;2022-12-29T12:16:32;11.60;99.90
3312;DHT22;1668;49.648;8.570;2022-12-29T12:19:04;11.50;99.90
3312;DHT22;1668;49.648;8.570;2022-12-29T12:21:39;11.50;73.50
3312;DHT22;1668;49.648;8.570;2022-12-29T12:24:29;11.50;1.00
3312;DHT22;1668;49.648;8.570;2022-12-29T12:27:04;11.50;1.00
3312;DHT22;1668;49.648;8.570;2022-12-29T12:29:38;11.50;1.00
3312;DHT22;1668;49.648;8.570;2022-12-29T12:32:14;11.60;99.90
3312;DHT22;1668;49.648;8.570;2022-12-29T12:34:43;11.60;1.00
3312;DHT22;1668;49.648;8.570;2022-12-29T12:37:23;11.70;1.00
3312;DHT22;1668;49.648;8.570;2022-12-29T12:40:15;11.70;1.00
3312;DHT22;1668;49.648;8.570;2022-12-29T12:42:53;11.70;1.00
3312;DHT22;1668;49.648;8.570;2022-12-29T12:45:38;11.80;1.00
3312;DHT22;1668;49.648;8.570;2022-12-29T12:48:22;11.80;1.00
3312;DHT22;1668;49.648;8.570;2022-12-29T12:50:58;11.80;1.00
3312;DHT22;1668;49.648;8.570;2022-12-29T12:53:47;11.90;99.90
3312;DHT22;1668;49.648;8.570;2022-12-29T12:56:29;11.90;1.00
3312;DHT22;1668;49.648;8.570;2022-12-29T12:59:06;12.00;99.90
3312;DHT22;1668;49.648;8.570;2022-12-29T13:01:42;11.90;1.00
3312;DHT22;1668;49.648;8.570;2022-12-29T13:04:43;12.00;1.00
3312;DHT22;1668;49.648;8.570;2022-12-29T13:07:23;12.00;52.50
3312;DHT22;1668;49.648;8.570;2022-12-29T13:10:08;12.00;95.00
3312;DHT22;1668;49.648;8.570;2022-12-29T13:12:43;12.00;1.00
3312;DHT22;1668;49.648;8.570;2022-12-29T13:15:21;12.00;99.90
3312;DHT22;1668;49.648;8.570;2022-12-29T13:17:59;12.10;99.90
3312;DHT22;1668;49.648;8.570;2022-12-29T13:20:33;12.10;99.90
3312;DHT22;1668;49.648;8.570;2022-12-29T13:23:07;12.10;1.00
3312;DHT22;1668;49.648;8.570;2022-12-29T13:25:42;12.10;1.00
3312;DHT22;1668;49.648;8.570;2022-12-29T13:28:16;12.00;99.90
3312;DHT22;1668;49.648;8.570;2022-12-29T13:30:55;12.00;1.00
3312;DHT22;1668;49.648;8.570;2022-12-29T13:33:31;12.00;1.00
3312;DHT22;1668;49.648;8.570;2022-12-29T13:36:04;12.00;1.00
3312;DHT22;1668;49.648;8.570;2022-12-29T13:38:34;12.00;99.90
3312;DHT22;1668;49.648;8.570;2022-12-29T13:41:07;12.00;99.90
3312;DHT22;1668;49.648;8.570;2022-12-29T13:43:37;12.00;1.00
3312;DHT22;1668;49.648;8.570;2022-12-29T13:46:08;12.00;99.90
3312;DHT22;1668;49.648;8.570;2022-12-29T13:48:43;11.90;99.90
3312;DHT22;1668;49.648;8.570;2022-12-29T13:51:12;11.90;99.90
3312;DHT22;1668;49.648;8.570;2022-12-29T13:53:52;12.00;99.90
3312;DHT22;1668;49.648;8.570;2022-12-29T13:56:25;11.90;1.00
3312;DHT22;1668;49.648;8.570;2022-12-29T13:58:58;11.90;1.00
3312;DHT22;1668;49.648;8.570;2022-12-29T14:01:30;11.90;1.00
3312;DHT22;1668;49.648;8.570;2022-12-29T14:03:59;11.80;1.00
3312;DHT22;1668;49.648;8.570;2022-12-29T14:06:28;11.80;99.90
3312;DHT22;1668;49.648;8.570;2022-12-29T14:08:58;11.80;99.90
3312;DHT22;1668;49.648;8.570;2022-12-29T14:11:31;11.80;99.90
3312;DHT22;1668;49.648;8.570;2022-12-29T14:13:59;11.80;1.00
3312;DHT22;1668;49.648;8.570;2022-12-29T14:16:37;11.80;99.90
3312;DHT22;1668;49.648;8.570;2022-12-29T14:19:10;11.80;99.90
3312;DHT22;1668;49.648;8.570;2022-12-29T14:21:39;11.70;99.90
3312;DHT22;1668;49.648;8.570;2022-12-29T14:27:50;11.60;1.00
3312;DHT22;1668;49.648;8.570;2022-12-29T14:30:47;11.50;1.00
3312;DHT22;1668;49.648;8.570;2022-12-29T14:33:14;11.40;99.90
3312;DHT22;1668;49.648;8.570;2022-12-29T14:35:43;11.30;1.00
3312;DHT22;1668;49.648;8.570;2022-12-29T14:38:19;11.20;99.90
3312;DHT22;1668;49.648;8.570;2022-12-29T14:40:48;11.10;1.00
3312;DHT22;1668;49.648;8.570;2022-12-29T14:43:23;11.00;1.00
3312;DHT22;1668;49.648;8.570;2022-12-29T14:45:57;11.00;1.00
3312;DHT22;1668;49.648;8.570;2022-12-29T14:48:37;10.90;1.00
3312;DHT22;1668;49.648;8.570;2022-12-29T14:51:25;10.80;83.70
3312;DHT22;1668;49.648;8.570;2022-12-29T14:53:54;10.80;99.90
3312;DHT22;1668;49.648;8.570;2022-12-29T14:56:25;10.70;99.90
3312;DHT22;1668;49.648;8.570;2022-12-29T14:58:55;10.70;99.90
3312;DHT22;1668;49.648;8.570;2022-12-29T15:01:26;10.70;99.90
3312;DHT22;1668;49.648;8.570;2022-12-29T15:03:58;10.60;99.90
3312;DHT22;1668;49.648;8.570;2022-12-29T15:06:30;10.60;99.90
3312;DHT22;1668;49.648;8.570;2022-12-29T15:09:01;10.60;99.90
3312;DHT22;1668;49.648;8.570;2022-12-29T15:11:44;10.60;99.90
3312;DHT22;1668;49.648;8.570;2022-12-29T15:14:32;10.50;99.90
3312;DHT22;1668;49.648;8.570;2022-12-29T15:16:59;10.40;99.90
3312;DHT22;1668;49.648;8.570;2022-12-29T15:19:27;10.40;96.60
3312;DHT22;1668;49.648;8.570;2022-12-29T15:21:55;10.40;93.40
3312;DHT22;1668;49.648;8.570;2022-12-29T15:24:22;10.40;99.90
3312;DHT22;1668;49.648;8.570;2022-12-29T15:26:51;10.40;99.90
3312;DHT22;1668;49.648;8.570;2022-12-29T15:29:31;10.40;99.90
3312;DHT22;1668;49.648;8.570;2022-12-29T15:32:00;10.40;99.90
3312;DHT22;1668;49.648;8.570;2022-12-29T15:34:30;10.40;99.90
3312;DHT22;1668;49.648;8.570;2022-12-29T15:36:57;10.30;99.90
3312;DHT22;1668;49.648;8.570;2022-12-29T15:39:29;10.30;99.90
3312;DHT22;1668;49.648;8.570;2022-12-29T15:41:59;10.30;99.90
3312;DHT22;1668;49.648;8.570;2022-12-29T15:44:34;10.20;99.90
3312;DHT22;1668;49.648;8.570;2022-12-29T15:47:03;10.20;99.90
3312;DHT22;1668;49.648;8.570;2022-12-29T15:49:31;10.10;99.90
3312;DHT22;1668;49.648;8.570;2022-12-29T15:51:58;10.10;99.90
3312;DHT22;1668;49.648;8.570;2022-12-29T15:54:29;10.10;99.90
3312;DHT22;1668;49.648;8.570;2022-12-29T15:56:57;10.00;99.90
3312;DHT22;1668;49.648;8.570;2022-12-29T15:59:26;10.00;99.90
3312;DHT22;1668;49.648;8.570;2022-12-29T16:01:56;10.00;99.90
3312;DHT22;1668;49.648;8.570;2022-12-29T16:04:24;9.90;99.90
3312;DHT22;1668;49.648;8.570;2022-12-29T16:06:57;9.90;99.90
3312;DHT22;1668;49.648;8.570;2022-12-29T16:09:32;9.90;99.90
3312;DHT22;1668;49.648;8.570;2022-12-29T16:12:01;9.90;99.90
3312;DHT22;1668;49.648;8.570;2022-12-29T16:14:33;9.90;99.90
3312;DHT22;1668;49.648;8.570;2022-12-29T16:17:03;9.80;99.90
3312;DHT22;1668;49.648;8.570;2022-12-29T16:19:34;9.80;99.90
3312;DHT22;1668;49.648;8.570;2022-12-29T16:22:12;9.80;99.90
3312;DHT22;1668;49.648;8.570;2022-12-29T16:24:59;9.80;99.90
3312;DHT22;1668;49.648;8.570;2022-12-29T16:27:33;9.80;99.90
3312;DHT22;1668;49.648;8.570;2022-12-29T16:30:05;9.80;99.90
3312;DHT22;1668;49.648;8.570;2022-12-29T16:32:34;9.80;99.90
3312;DHT22;1668;49.648;8.570;2022-12-29T16:35:15;9.80;99.90
3312;DHT22;1668;49.648;8.570;2022-12-29T16:37:43;9.80;99.90
3312;DHT22;1668;49.648;8.570;2022-12-29T16:40:25;9.80;99.90
3312;DHT22;1668;49.648;8.570;2022-12-29T16:42:56;9.80;99.90
3312;DHT22;1668;49.648;8.570;2022-12-29T16:48:33;9.80;99.90